Tiempo atmosférico en la estación meteorológica de Tacoronte, Santa Cruz de Tenerife (310 m.)



Fecha
DESCASC
Temp. máxima en grados centígrados (hora)
DESCASC
Temp. mínima en grados centígrados (hora)
DESCASC
Temp. media en grados centígrados
DESCASC
Racha de viento máxima en m/sg (hora)
DESCASC
Velocidad máxima media en intervalos de 10 minutos(hora)
DESCASC
Precipitaciones diarias en mm
DESCASC
Precipitaciones de 00:00 a 06:00 en mm
DESCASC
Precipitaciones de 06:00 a 12:00 en mm
DESCASC
Precipitaciones de 12:00 a 18:00 en mm
DESCASC
Precipitaciones de 18:00 a 24:00 en mm
DESCASC
10-07-2020 24.6 (15:40) 18.2 (02:50) 21.4 7.5 (15:30) 4.72 (15:30) 0 0 0 0 0
09-07-2020 24.7 (13:30) 17.6 (03:10) 21.2 10 (15:40) 7.22 (16:20) 0 0 0 0 0
08-07-2020 25.6 (14:20) 17.7 (07:10) 21.7 7.78 (19:00) 5.83 (13:10) 0 0 0 0 0
07-07-2020 24.1 (15:40) 18.3 (05:50) 21.2 4.72 (15:10) 2.5 (21:20) 0 0 0 0 0
06-07-2020 25.1 (14:30) 17.1 (00:00) 21.1 6.67 (13:40) 4.17 (13:40) 0 0 0 0 0
05-07-2020 23.1 (13:00) 18 (04:50) 20.6 6.67 (14:40) 3.89 (13:20) 0 0 0 0 0
04-07-2020 21.3 (17:10) 17.8 (07:10) 19.5 8.61 (17:20) 5 (11:50) 0.2 0 0.2 0 0
03-07-2020 22 (12:20) 18.8 (03:10) 20.4 8.89 (14:10) 5.83 (12:10) 0 0 0 0 0
02-07-2020 22.3 (15:40) 17.8 (00:00) 20 8.33 (11:20) 5.28 (16:00) 0.4 0.2 0.2 0 0
01-07-2020 23.3 (17:40) 18.6 (00:00) 20.9 7.5 (18:10) 5 (17:50) 0 0 0 0 0
30-06-2020 22.6 (16:30) 17.7 (00:00) 20.2 7.78 (15:30) 4.44 (14:00) 0.6 0.4 0.2 0 0
29-06-2020 21.8 (17:00) 17.7 (00:00) 19.8 8.89 (12:20) 5.28 (12:20) 3.6 0.4 2.8 0.4 0
28-06-2020 23 (16:50) 18.8 (00:00) 20.9 8.06 (16:50) 4.17 (16:50) 1.6 0 0.4 0 1.2
27-06-2020 23.2 (13:50) 18.1 (00:00) 20.7 10.28 (14:50) 6.39 (15:30) 0 0 0 0 0
26-06-2020 22.5 (15:00) 18.1 (00:00) 20.3 8.61 (12:30) 5.56 (12:30) 0.2 0.2 0 0 0
25-06-2020 23.8 (17:00) 18.7 (00:00) 21.3 8.89 (16:40) 4.72 (11:30) 0 0 0 0 0
24-06-2020 22.8 (16:20) 18.6 (00:00) 20.7 6.94 (12:40) 3.61 (13:10) 0 0 0 0 0
23-06-2020 23.4 (15:50) 19.1 (00:00) 21.3 8.06 (15:00) 4.17 (14:50) 0 0 0 0 0
22-06-2020 24.6 (16:50) 18.6 (00:00) 21.6 9.17 (14:00) 5 (17:30) 0 0 0 0 0
21-06-2020 24.3 (15:20) 18.8 (00:00) 21.5 12.22 (13:00) 8.06 (13:00) 0 0 0 0 0
20-06-2020 23.9 (17:10) 18.5 (00:00) 21.2 9.17 (15:40) 5.56 (17:50) 0 0 0 0 0
19-06-2020 24.7 (16:10) 17.7 (00:00) 21.2 11.11 (15:10) 7.22 (14:00) 0.2 0 0.2 0 0
18-06-2020 23.9 (16:50) 18.3 (23:50) 21.1 8.89 (02:00) 5 (02:30) 0 0 0 0 0
17-06-2020 25.2 (02:00) 19.8 (00:00) 22.5 9.17 (03:20) 6.11 (03:10) 0 0 0 0 0
16-06-2020 30.4 (13:00) 21 (00:00) 25.7 12.78 (22:40) 7.22 (22:40) 0 0 0 0 0
15-06-2020 28.9 (15:20) 19.4 (00:00) 24.1 8.33 (14:00) 4.44 (14:00) 0.6 0.6 0 0 0
14-06-2020 26.2 (22:50) 16.2 (00:00) 21.2 11.39 (16:10) 7.5 (16:10) 0 0 0 0 0
13-06-2020 23.6 (18:40) 15.6 (00:00) 19.6 6.67 (18:50) 4.17 (18:50) 0 0 0 0 0
12-06-2020 23.8 (15:30) 17.1 (00:00) 20.4 8.61 (15:50) 3.89 (15:40) 0 0 0 0 0

Gráficas

Temp. máximas Temp. mínimas Temp. medias Precipitaciones Rachas de viento máximas Velocidades máximas media en intervalos de 10 minutos

Datos horarios

Fecha y hora oficial Temperatura (ºC) Velocidad del viento (km/h) Dirección del viento Racha (km/h) Dirección de racha Precipitación (mm) Presión (hPa) Tendencia (hPa) Humedad (%)
2020-07-11 23:00:00 19.6 12 Este 17 Este 0 -- -- 84
2020-07-11 22:00:00 19.7 12 Nordeste 21 Nordeste 0 -- -- 84
2020-07-11 21:00:00 20.2 9 Nordeste 21 Nordeste 0 -- -- 80
2020-07-11 20:00:00 20.6 11 Nordeste 22 Nordeste 0 -- -- 77
2020-07-11 19:00:00 22.2 13 Nordeste 26 Nordeste 0 -- -- 71
2020-07-11 18:00:00 23.2 14 Nordeste 34 Nordeste 0 -- -- 71
2020-07-11 17:00:00 24.2 14 Nordeste 23 Nordeste 0 -- -- 70
2020-07-11 16:00:00 22.9 12 Norte 21 Nordeste 0 -- -- 74
2020-07-11 15:00:00 23 13 Nordeste 25 Nordeste 0 -- -- 72
2020-07-11 14:00:00 21.8 13 Nordeste 24 Nordeste 0 -- -- 78
2020-07-11 13:00:00 21.8 13 Norte 25 Nordeste 0 -- -- 80
2020-07-11 12:00:00 22.3 14 Nordeste 24 Nordeste 0 -- -- 76
2020-07-11 11:00:00 20.9 13 Nordeste 20 Nordeste 0 -- -- 81
2020-07-11 10:00:00 20.1 12 Nordeste 21 Nordeste 0 -- -- 85
2020-07-11 09:00:00 19.6 8 Este 15 Nordeste 0 -- -- 86
2020-07-11 08:00:00 19.2 8 Nordeste 14 Nordeste 0 -- -- 88
2020-07-11 07:00:00 18.7 8 Sudeste 13 Nordeste 0 -- -- 90
2020-07-11 06:00:00 19 6 Nordeste 12 Nordeste 0 -- -- 89
2020-07-11 05:00:00 18.8 4 Este 10 Este 0 -- -- 88
2020-07-11 04:00:00 18.9 10 Este 15 Este 0 -- -- 89
2020-07-11 03:00:00 19.3 6 Nordeste 10 Nordeste 0 -- -- 89
2020-07-11 02:00:00 19.6 6 Nordeste 13 Nordeste 0 -- -- 86
2020-07-11 01:00:00 19.8 2 Norte 12 Este 0 -- -- 81
2020-07-11 00:00:00 19.9 5 Nordeste 17 Nordeste 0 -- -- 80
2020-07-10 23:00:00 20 8 Nordeste 13 Nordeste 0 -- -- 84
2020-07-10 22:00:00 20 8 Nordeste 16 Este 0 -- -- 82
2020-07-10 21:00:00 20.1 10 Nordeste 18 Nordeste 0 -- -- 80
2020-07-10 20:00:00 20.7 10 Nordeste 26 Nordeste 0 -- -- 82
2020-07-10 19:00:00 21.9 11 Nordeste 24 Nordeste 0 -- -- 75
2020-07-10 18:00:00 22.7 14 Nordeste 27 Nordeste 0 -- -- 71
2020-07-10 17:00:00 21.6 12 Norte 23 Norte 0 -- -- 80
2020-07-10 16:00:00 22.8 15 Nordeste 27 Nordeste 0 -- -- 74
2020-07-10 15:00:00 22.9 15 Nordeste 26 Nordeste 0 -- -- 70
2020-07-10 14:00:00 22.5 12 Nordeste 23 Nordeste 0 -- -- 72
2020-07-10 13:00:00 22 12 Nordeste 26 Norte 0 -- -- 77
2020-07-10 12:00:00 21.7 12 Nordeste 22 Nordeste 0 -- -- 74
2020-07-10 11:00:00 20.8 11 Nordeste 19 Este 0 -- -- 81
2020-07-10 10:00:00 20.4 7 Nordeste 17 Nordeste 0 -- -- 80
2020-07-10 09:00:00 19.4 9 Nordeste 15 Este 0 -- -- 84
2020-07-10 08:00:00 19 8 Este 12 Este 0 -- -- 84
2020-07-10 07:00:00 18.8 9 Nordeste 17 Nordeste 0 -- -- 85
2020-07-10 06:00:00 18.9 9 Este 18 Este 0 -- -- 83
2020-07-10 05:00:00 18.7 10 Este 20 Este 0 -- -- 86
2020-07-10 04:00:00 18.7 9 Este 13 Este 0 -- -- 88
2020-07-10 03:00:00 18.2 10 Este 13 Este 0 -- -- 90
2020-07-10 02:00:00 18.5 10 Este 18 Este 0 -- -- 87
2020-07-10 01:00:00 18.9 11 Nordeste 18 Este 0 -- -- 88
2020-07-10 00:00:00 18.6 11 Este 21 Este 0 -- -- 87
2020-07-09 23:00:00 18.6 13 Este 24 Este 0 -- -- 87
2020-07-09 22:00:00 18.8 17 Este 30 Este 0 -- -- 86
2020-07-09 21:00:00 19.5 17 Este 32 Nordeste 0 -- -- 84
2020-07-09 20:00:00 21 21 Nordeste 32 Nordeste 0 -- -- 79
2020-07-09 19:00:00 22.2 22 Nordeste 33 Nordeste 0 -- -- 73
2020-07-09 18:00:00 23 23 Nordeste 35 Nordeste 0 -- -- 72
2020-07-09 17:00:00 23.6 24 Nordeste 35 Este 0 -- -- 69
2020-07-09 16:00:00 24.4 23 Nordeste 36 Nordeste 0 -- -- 66
2020-07-09 15:00:00 24.7 22 Nordeste 35 Este 0 -- -- 64
2020-07-09 14:00:00 24.7 22 Nordeste 34 Este 0 -- -- 67
2020-07-09 13:00:00 24.2 22 Nordeste 35 Nordeste 0 -- -- 70
2020-07-09 12:00:00 23.7 19 Nordeste 32 Nordeste 0 -- -- 71
2020-07-09 11:00:00 22.7 22 Nordeste 30 Nordeste 0 -- -- 75
2020-07-09 10:00:00 21.6 13 Nordeste 23 Nordeste 0 -- -- 78
2020-07-09 09:00:00 19.9 15 Este 24 Este 0 -- -- 86
2020-07-09 08:00:00 18.5 14 Este 25 Este 0 -- -- 91
2020-07-09 07:00:00 17.8 12 Este 22 Este 0 -- -- 93
2020-07-09 06:00:00 17.7 11 Este 17 Este 0 -- -- 94
2020-07-09 05:00:00 17.7 5 Sudeste 19 Nordeste 0 -- -- 93
2020-07-09 04:00:00 18.2 5 Sudeste 18 Este 0 -- -- 95
2020-07-09 03:00:00 18 5 Sudeste 9 Este 0 -- -- 95
2020-07-09 02:00:00 18.8 9 Este 16 Este 0 -- -- 93
2020-07-09 01:00:00 19.4 5 Noroeste 15 Este 0 -- -- 91
2020-07-09 00:00:00 19.2 3 Este 12 Nordeste 0 -- -- 91
2020-07-08 23:00:00 19.6 6 Este 15 Este 0 -- -- 91
2020-07-08 22:00:00 20.3 3 Este 17 Nordeste 0 -- -- 91
2020-07-08 21:00:00 20.6 12 Nordeste 21 Nordeste 0 -- -- 89
2020-07-08 20:00:00 22.2 14 Nordeste 26 Nordeste 0 -- -- 83
2020-07-08 19:00:00 22.8 20 Nordeste 28 Nordeste 0 -- -- 81
2020-07-08 18:00:00 24.5 16 Nordeste 26 Nordeste 0 -- -- 74
2020-07-08 17:00:00 24.2 18 Nordeste 28 Norte 0 -- -- 75
2020-07-08 16:00:00 24.7 17 Nordeste 27 Nordeste 0 -- -- 73
2020-07-08 15:00:00 24.8 18 Nordeste 27 Nordeste 0 -- -- 73
2020-07-08 14:00:00 25.5 12 Nordeste 28 Nordeste 0 -- -- 69
2020-07-08 13:00:00 23.8 20 Nordeste 28 Nordeste 0 -- -- 75
2020-07-08 12:00:00 23.3 17 Nordeste 27 Nordeste 0 -- -- 78
2020-07-08 11:00:00 23.1 14 Nordeste 22 Nordeste 0 -- -- 79
2020-07-08 10:00:00 21.4 16 Nordeste 22 Norte 0 -- -- 86
2020-07-08 09:00:00 19.9 10 Nordeste 17 Este 0 -- -- 94
2020-07-08 08:00:00 18.3 0 Calma 9 Sudeste 0 -- -- 96
2020-07-08 07:00:00 17.8 2 Sur 9 Sudoeste 0 -- -- 96
2020-07-08 06:00:00 18.3 5 Sudeste 15 Nordeste 0 -- -- 97
2020-07-08 05:00:00 18.6 9 Este 17 Este 0 -- -- 97
2020-07-08 04:00:00 18.6 2 Sudeste 9 Sudoeste 0 -- -- 97
2020-07-08 03:00:00 18.3 3 Sur 7 Sudoeste 0 -- -- 97
2020-07-08 02:00:00 19.1 3 Este 8 Sudoeste 0 -- -- 97
2020-07-08 01:00:00 19.1 3 Sudoeste 5 Sudeste 0 -- -- 96
2020-07-08 00:00:00 19.5 0 Calma 6 Sur 0 -- -- 96
2020-07-07 23:00:00 19.9 3 Sudoeste 8 Sudoeste 0 -- -- 95
2020-07-07 22:00:00 20.4 2 Sur 14 Nordeste 0 -- -- 93
2020-07-07 21:00:00 20.9 8 Nordeste 13 Nordeste 0 -- -- 91
2020-07-07 20:00:00 22 6 Norte 13 Norte 0 -- -- 86
2020-07-07 19:00:00 22.8 8 Norte 14 Nordeste 0 -- -- 83
2020-07-07 18:00:00 23 7 Norte 13 Noroeste 0 -- -- 83
2020-07-07 17:00:00 22.6 7 Noroeste 15 Norte 0 -- -- 85
2020-07-07 16:00:00 23.9 8 Norte 17 Norte 0 -- -- 81
2020-07-07 15:00:00 23 6 Norte 16 Noroeste 0 -- -- 83
2020-07-07 14:00:00 22.9 9 Norte 17 Norte 0 -- -- 81
2020-07-07 13:00:00 23 7 Norte 14 Norte 0 -- -- 81
2020-07-07 12:00:00 22.2 6 Norte 12 Norte 0 -- -- 87
2020-07-07 11:00:00 21.5 5 Norte 9 Nordeste 0 -- -- 88
2020-07-07 10:00:00 20.9 3 Noroeste 8 Norte 0 -- -- 92
2020-07-07 09:00:00 20.1 6 Norte 13 Norte 0 -- -- 94
2020-07-07 08:00:00 18.8 5 Sudeste 9 Este 0 -- -- 95
2020-07-07 07:00:00 18.9 3 Nordeste 5 Este 0 -- -- 92
2020-07-07 06:00:00 18.9 3 Nordeste 6 Sudoeste 0 -- -- 87
2020-07-07 05:00:00 18.9 3 Sudoeste 6 Oeste 0 -- -- 87
2020-07-07 04:00:00 19.1 0 Calma 6 Sudoeste 0 -- -- 79
2020-07-07 03:00:00 19.1 2 Este 5 Este 0 -- -- 89
2020-07-07 02:00:00 19.1 2 Sur 5 Sudoeste 0 -- -- 89
2020-07-07 01:00:00 19.5 2 Sudoeste 7 Sudeste 0 -- -- 92
2020-07-07 00:00:00 19.4 0 Calma 8 Este 0 -- -- 93
2020-07-06 23:00:00 19.6 2 Noroeste 12 Nordeste 0 -- -- 93
2020-07-06 22:00:00 20 8 Nordeste 14 Nordeste 0 -- -- 91
2020-07-06 21:00:00 20.6 10 Nordeste 19 Nordeste 0 -- -- 89
2020-07-06 20:00:00 21.7 12 Nordeste 22 Norte 0 -- -- 85
2020-07-06 19:00:00 23.3 13 Nordeste 21 Nordeste 0 -- -- 79
2020-07-06 18:00:00 24.2 9 Norte 19 Nordeste 0 -- -- 77
2020-07-06 17:00:00 25 9 Nordeste 18 Nordeste 0 -- -- 75
2020-07-06 16:00:00 24.7 13 Nordeste 24 Nordeste 0 -- -- 74
2020-07-06 15:00:00 24.8 12 Nordeste 24 Nordeste 0 -- -- 73
2020-07-06 14:00:00 24.8 15 Nordeste 24 Nordeste 0 -- -- 74
2020-07-06 13:00:00 23.4 9 Norte 19 Norte 0 -- -- 79
2020-07-06 12:00:00 23.4 13 Nordeste 22 Este 0 -- -- 79
2020-07-06 11:00:00 22 7 Norte 24 Nordeste 0 -- -- 86
2020-07-06 10:00:00 21.1 15 Nordeste 24 Nordeste 0 -- -- 86
2020-07-06 09:00:00 19.6 7 Este 21 Este 0 -- -- 92
2020-07-06 08:00:00 18.9 11 Este 19 Este 0 -- -- 93
2020-07-06 07:00:00 17.1 8 Sudeste 16 Nordeste 0 -- -- 91
2020-07-06 06:00:00 17.4 9 Este 12 Este 0 -- -- 89
2020-07-06 05:00:00 17.9 5 Sudeste 14 Nordeste 0 -- -- 89
2020-07-06 04:00:00 18.1 8 Sudeste 17 Este 0 -- -- 90
2020-07-06 03:00:00 18.8 11 Este 18 Este 0 -- -- 90
2020-07-06 02:00:00 19 10 Este 16 Este 0 -- -- 89
2020-07-06 01:00:00 19 9 Este 17 Este 0 -- -- 91
2020-07-06 00:00:00 19.4 9 Nordeste 15 Nordeste 0 -- -- 91
2020-07-05 23:00:00 19.5 9 Este 13 Este 0 -- -- 88
2020-07-05 22:00:00 19.3 8 Este 12 Nordeste 0 -- -- 89
2020-07-05 21:00:00 19.8 9 Nordeste 17 Nordeste 0 -- -- 86
2020-07-05 20:00:00 20.8 12 Nordeste 19 Nordeste 0 -- -- 80
2020-07-05 19:00:00 22.6 9 Nordeste 19 Norte 0 -- -- 75
2020-07-05 18:00:00 21.3 9 Norte 22 Norte 0 -- -- 80
2020-07-05 17:00:00 22.2 9 Nordeste 22 Norte 0 -- -- 74
2020-07-05 16:00:00 22.1 13 Nordeste 23 Norte 0 -- -- 76
2020-07-05 15:00:00 21.1 13 Norte 24 Norte 0 -- -- 79
2020-07-05 14:00:00 22.4 11 Norte 22 Noroeste 0 -- -- 71
2020-07-05 13:00:00 23.1 12 Norte 20 Nordeste 0 -- -- 67
2020-07-05 12:00:00 22 11 Norte 20 Nordeste 0 -- -- 72
2020-07-05 11:00:00 20.9 12 Nordeste 19 Nordeste 0 -- -- 75
2020-07-05 10:00:00 19.8 9 Nordeste 18 Nordeste 0 -- -- 79
2020-07-05 09:00:00 18.9 10 Nordeste 16 Nordeste 0 -- -- 82
2020-07-05 08:00:00 18.5 5 Nordeste 14 Nordeste 0 -- -- 83
2020-07-05 07:00:00 18.2 5 Este 14 Nordeste 0 -- -- 87
2020-07-05 06:00:00 18.2 5 Este 13 Nordeste 0 -- -- 83
2020-07-05 05:00:00 18.1 4 Nordeste 12 Este 0 -- -- 87
2020-07-05 04:00:00 18.3 8 Nordeste 14 Este 0 -- -- 84
2020-07-05 03:00:00 18.4 8 Nordeste 17 Nordeste 0 -- -- 82
2020-07-05 02:00:00 18.5 6 Nordeste 12 Norte 0 -- -- 83
2020-07-05 01:00:00 18.7 6 Nordeste 15 Nordeste 0 -- -- 82
2020-07-05 00:00:00 18.7 6 Nordeste 19 Nordeste 0 -- -- 83
2020-07-04 23:00:00 18.8 8 Nordeste 14 Nordeste 0 -- -- 82
2020-07-04 22:00:00 18.8 8 Nordeste 17 Norte 0 -- -- 80
2020-07-04 21:00:00 19.1 9 Nordeste 20 Nordeste 0 -- -- 78
2020-07-04 20:00:00 19.8 12 Nordeste 21 Nordeste 0 -- -- 76
2020-07-04 19:00:00 19.8 14 Nordeste 20 Nordeste 0 -- -- 81
2020-07-04 18:00:00 21 13 Nordeste 31 Nordeste 0 -- -- 71
2020-07-04 17:00:00 20.6 15 Nordeste 26 Nordeste 0 -- -- 75
2020-07-04 16:00:00 19.2 12 Nordeste 27 Norte 0 -- -- 85
2020-07-04 15:00:00 19.9 16 Nordeste 27 Nordeste 0 -- -- 80
2020-07-04 14:00:00 21.2 13 Nordeste 25 Nordeste 0 -- -- 73
2020-07-04 13:00:00 19.7 15 Nordeste 26 Nordeste 0 -- -- 79
2020-07-04 12:00:00 19.5 16 Nordeste 26 Nordeste 0.2 -- -- 84
2020-07-04 11:00:00 18.9 13 Nordeste 24 Norte 0 -- -- 88
2020-07-04 10:00:00 18.9 10 Nordeste 21 Nordeste 0 -- -- 82
2020-07-04 09:00:00 18.4 10 Nordeste 21 Nordeste 0 -- -- 86
2020-07-04 08:00:00 18.1 10 Nordeste 24 Nordeste 0 -- -- 87
2020-07-04 07:00:00 18.1 8 Nordeste 19 Nordeste 0 -- -- 89
2020-07-04 06:00:00 18.1 13 Nordeste 21 Nordeste 0 -- -- 88
2020-07-04 05:00:00 18.2 10 Nordeste 20 Nordeste 0 -- -- 88
2020-07-04 04:00:00 18.3 9 Nordeste 22 Nordeste 0 -- -- 88
2020-07-04 03:00:00 18.4 8 Nordeste 27 Nordeste 0 -- -- 88
2020-07-04 02:00:00 18.8 11 Nordeste 22 Nordeste 0 -- -- 87
2020-07-04 01:00:00 18.9 14 Nordeste 24 Este 0 -- -- 85
2020-07-04 00:00:00 19 11 Nordeste 21 Nordeste 0 -- -- 85
2020-07-03 23:00:00 19.1 13 Nordeste 21 Nordeste 0 -- -- 85
2020-07-03 22:00:00 19.1 10 Este 22 Este 0 -- -- 84
2020-07-03 21:00:00 19.5 10 Nordeste 22 Nordeste 0 -- -- 86
2020-07-03 20:00:00 20 13 Nordeste 24 Nordeste 0 -- -- 83
2020-07-03 19:00:00 20.5 12 Nordeste 25 Este 0 -- -- 82
2020-07-03 18:00:00 21 14 Nordeste 27 Nordeste 0 -- -- 82
2020-07-03 17:00:00 21 17 Nordeste 27 Nordeste 0 -- -- 82
2020-07-03 16:00:00 21.8 18 Nordeste 31 Nordeste 0 -- -- 78
2020-07-03 15:00:00 21.4 15 Nordeste 32 Nordeste 0 -- -- 82
2020-07-03 14:00:00 21.5 16 Nordeste 27 Este 0 -- -- 80
2020-07-03 13:00:00 21.2 17 Nordeste 31 Nordeste 0 -- -- 82
2020-07-03 12:00:00 21 15 Nordeste 30 Este 0 -- -- 84
2020-07-03 11:00:00 20.7 19 Nordeste 29 Este 0 -- -- 83
2020-07-03 10:00:00 20 13 Nordeste 26 Nordeste 0 -- -- 88
2020-07-03 09:00:00 19.6 15 Nordeste 24 Este 0 -- -- 90
2020-07-03 08:00:00 19.1 14 Nordeste 22 Nordeste 0 -- -- 90
2020-07-03 07:00:00 19 13 Este 22 Este 0 -- -- 91
2020-07-03 06:00:00 19.1 6 Este 15 Nordeste 0 -- -- 88
2020-07-03 05:00:00 18.8 13 Nordeste 22 Nordeste 0 -- -- 91
2020-07-03 04:00:00 18.9 9 Este 18 Nordeste 0 -- -- 91
2020-07-03 03:00:00 18.9 13 Nordeste 23 Nordeste 0 -- -- 92
2020-07-03 02:00:00 19.1 7 Nordeste 21 Nordeste 0 -- -- 90
2020-07-03 01:00:00 19.2 10 Nordeste 19 Este 0 -- -- 90
2020-07-03 00:00:00 19.5 9 Nordeste 19 Nordeste 0 -- -- 88
2020-07-02 23:00:00 19.7 5 Nordeste 15 Este 0 -- -- 88
2020-07-02 22:00:00 19.6 12 Nordeste 23 Nordeste 0 -- -- 86
2020-07-02 21:00:00 19.8 12 Nordeste 22 Este 0 -- -- 87
2020-07-02 20:00:00 20 12 Nordeste 24 Nordeste 0 -- -- 87
2020-07-02 19:00:00 20.5 14 Nordeste 21 Nordeste 0 -- -- 84
2020-07-02 18:00:00 20.9 15 Nordeste 25 Nordeste 0 -- -- 83
2020-07-02 17:00:00 21.4 16 Nordeste 24 Nordeste 0 -- -- 79
2020-07-02 16:00:00 21.5 19 Nordeste 29 Nordeste 0 -- -- 77
2020-07-02 15:00:00 20.9 16 Nordeste 27 Nordeste 0 -- -- 81
2020-07-02 14:00:00 21.2 18 Nordeste 26 Nordeste 0 -- -- 79
2020-07-02 13:00:00 20.8 12 Nordeste 22 Nordeste 0 -- -- 82
2020-07-02 12:00:00 20.8 12 Nordeste 30 Nordeste 0 -- -- 81
2020-07-02 11:00:00 20.3 14 Nordeste 25 Nordeste 0 -- -- 85
2020-07-02 10:00:00 19.5 13 Nordeste 20 Nordeste 0 -- -- 88
2020-07-02 09:00:00 18.7 7 Este 17 Este 0 -- -- 95
2020-07-02 08:00:00 18.3 10 Este 19 Nordeste 0 -- -- 97
2020-07-02 07:00:00 17.9 10 Este 25 Nordeste 0.2 -- -- 98
2020-07-02 06:00:00 18.3 12 Nordeste 23 Este 0 -- -- 96
2020-07-02 05:00:00 18.2 10 Nordeste 24 Este 0.2 -- -- 96
2020-07-02 04:00:00 18.5 9 Nordeste 18 Este 0 -- -- 95
2020-07-02 03:00:00 18.9 9 Este 17 Nordeste 0 -- -- 90
2020-07-02 02:00:00 19.2 8 Nordeste 15 Nordeste 0 -- -- 87
2020-07-02 01:00:00 19.2 12 Nordeste 21 Nordeste 0 -- -- 87
2020-07-02 00:00:00 19.7 9 Este 21 Nordeste 0 -- -- 84
2020-07-01 23:00:00 19.7 12 Nordeste 21 Nordeste 0 -- -- 85
2020-07-01 22:00:00 19.9 10 Este 18 Nordeste 0 -- -- 83
2020-07-01 21:00:00 20.3 6 Nordeste 19 Nordeste 0 -- -- 86
2020-07-01 20:00:00 20.9 8 Nordeste 23 Nordeste 0 -- -- 79
2020-07-01 19:00:00 21.7 13 Nordeste 27 Nordeste 0 -- -- 76
2020-07-01 18:00:00 22.1 16 Nordeste 26 Nordeste 0 -- -- 73
2020-07-01 17:00:00 22.9 13 Nordeste 27 Nordeste 0 -- -- 71
2020-07-01 16:00:00 22.3 12 Nordeste 23 Nordeste 0 -- -- 71
2020-07-01 15:00:00 22.5 10 Nordeste 24 Norte 0 -- -- 73
2020-07-01 14:00:00 21.2 13 Norte 20 Noroeste 0 -- -- 77
2020-07-01 13:00:00 21.1 11 Norte 20 Norte 0 -- -- 77
2020-07-01 12:00:00 21.3 8 Nordeste 21 Nordeste 0 -- -- 76
2020-07-01 11:00:00 20.2 10 Nordeste 17 Nordeste 0 -- -- 80
2020-07-01 10:00:00 19.6 9 Nordeste 17 Nordeste 0 -- -- 82
2020-07-01 09:00:00 19.2 6 Nordeste 19 Nordeste 0 -- -- 86
2020-07-01 08:00:00 18.9 10 Nordeste 17 Nordeste 0 -- -- 84
2020-07-01 07:00:00 18.7 5 Nordeste 11 Nordeste 0 -- -- 88
2020-07-01 06:00:00 18.8 6 Este 12 Nordeste 0 -- -- 85
2020-07-01 05:00:00 18.8 5 Nordeste 13 Norte 0 -- -- 85
2020-07-01 04:00:00 18.8 5 Este 10 Nordeste 0 -- -- 83
2020-07-01 03:00:00 18.7 8 Nordeste 14 Este 0 -- -- 84
2020-07-01 02:00:00 18.9 10 Este 18 Este 0 -- -- 87
2020-07-01 01:00:00 19.1 6 Nordeste 13 Este 0 -- -- 85
2020-07-01 00:00:00 18.9 8 Este 12 Este 0 -- -- 89
2020-06-30 23:00:00 19.2 7 Nordeste 17 Nordeste 0 -- -- 83
2020-06-30 22:00:00 19.3 8 Nordeste 18 Este 0 -- -- 84
2020-06-30 21:00:00 19.2 8 Nordeste 18 Nordeste 0 -- -- 87
2020-06-30 20:00:00 19.8 6 Nordeste 21 Nordeste 0 -- -- 83
2020-06-30 19:00:00 20.4 10 Nordeste 24 Nordeste 0 -- -- 84
2020-06-30 18:00:00 20.5 14 Nordeste 25 Nordeste 0 -- -- 87
2020-06-30 17:00:00 22.1 14 Nordeste 26 Nordeste 0 -- -- 75
2020-06-30 16:00:00 22.1 14 Nordeste 28 Nordeste 0 -- -- 77
2020-06-30 15:00:00 21.4 16 Nordeste 26 Norte 0 -- -- 78
2020-06-30 14:00:00 20.9 16 Nordeste 23 Nordeste 0 -- -- 83
2020-06-30 13:00:00 21.5 10 Nordeste 19 Norte 0 -- -- 81
2020-06-30 12:00:00 20.7 13 Nordeste 22 Este 0 -- -- 82
2020-06-30 11:00:00 20.6 10 Nordeste 20 Nordeste 0 -- -- 81
2020-06-30 10:00:00 19.6 11 Nordeste 17 Nordeste 0 -- -- 91
2020-06-30 09:00:00 18.9 9 Este 20 Nordeste 0.2 -- -- 92
2020-06-30 08:00:00 18.5 0 Calma 8 Norte 0 -- -- 96
2020-06-30 07:00:00 17.9 6 Sudeste 15 Este 0 -- -- 96
2020-06-30 06:00:00 18.4 6 Norte 15 Este 0.2 -- -- 96
2020-06-30 05:00:00 17.8 12 Este 21 Nordeste 0 -- -- 96
2020-06-30 04:00:00 18.4 4 Nordeste 13 Norte 0 -- -- 95
2020-06-30 03:00:00 18.7 2 Sur 8 Nordeste 0 -- -- 92
2020-06-30 02:00:00 18.6 5 Nordeste 14 Nordeste 0.2 -- -- 92
2020-06-30 01:00:00 18.2 7 Sudeste 14 Este 0 -- -- 94
2020-06-30 00:00:00 18.6 8 Nordeste 14 Este 0 -- -- 92
2020-06-29 23:00:00 19 5 Norte 12 Nordeste 0 -- -- 91
2020-06-29 22:00:00 19.2 4 Nordeste 14 Nordeste 0 -- -- 92
2020-06-29 21:00:00 19.3 7 Norte 17 Norte 0 -- -- 92
2020-06-29 20:00:00 19.7 7 Norte 24 Nordeste 0 -- -- 91
2020-06-29 19:00:00 20.4 15 Nordeste 25 Nordeste 0 -- -- 89
2020-06-29 18:00:00 20.6 10 Norte 24 Nordeste 0 -- -- 89
2020-06-29 17:00:00 21.8 13 Nordeste 23 Nordeste 0 -- -- 83
2020-06-29 16:00:00 21.3 7 Norte 17 Norte 0 -- -- 85
2020-06-29 15:00:00 20.3 6 Noroeste 17 Nordeste 0 -- -- 87
2020-06-29 14:00:00 19.8 14 Nordeste 25 Nordeste 0.2 -- -- 90
2020-06-29 13:00:00 19.9 9 Este 32 Este 0.2 -- -- 95
2020-06-29 12:00:00 20.5 11 Nordeste 19 Nordeste 0 -- -- 91
2020-06-29 11:00:00 18.7 13 Nordeste 26 Nordeste 1.2 -- -- 96
2020-06-29 10:00:00 18.7 4 Sudeste 25 Nordeste 0 -- -- 95
2020-06-29 09:00:00 18.1 6 Este 22 Nordeste 0.8 -- -- 96
2020-06-29 08:00:00 18.2 9 Este 18 Nordeste 0.6 -- -- 96
2020-06-29 07:00:00 17.9 6 Sudeste 26 Nordeste 0.2 -- -- 95
2020-06-29 06:00:00 18.5 6 Este 20 Nordeste 0 -- -- 94
2020-06-29 05:00:00 18.4 4 Sur 9 Sudeste 0 -- -- 95
2020-06-29 04:00:00 18.3 8 Nordeste 27 Nordeste 0.2 -- -- 95
2020-06-29 03:00:00 18.5 8 Nordeste 17 Nordeste 0 -- -- 95
2020-06-29 02:00:00 18.6 10 Nordeste 17 Norte 0.2 -- -- 95
2020-06-29 01:00:00 19.1 6 Norte 19 Este 0 -- -- 94
2020-06-29 00:00:00 18.8 9 Este 17 Este 0.4 -- -- 94
2020-06-28 23:00:00 18.9 4 Oeste 13 Nordeste 0.6 -- -- 94
2020-06-28 22:00:00 19.5 3 Noroeste 12 Norte 0.2 -- -- 94
2020-06-28 21:00:00 19.6 6 Norte 12 Norte 0 -- -- 90
2020-06-28 20:00:00 19.7 5 Este 19 Este 0 -- -- 90
2020-06-28 19:00:00 20.5 6 Norte 16 Noroeste 0 -- -- 85
2020-06-28 18:00:00 20.8 6 Norte 20 Nordeste 0 -- -- 82
2020-06-28 17:00:00 22.7 14 Nordeste 29 Nordeste 0 -- -- 73
2020-06-28 16:00:00 21.4 14 Nordeste 24 Nordeste 0 -- -- 77
2020-06-28 15:00:00 20.9 12 Norte 25 Este 0 -- -- 81
2020-06-28 14:00:00 22.2 9 Norte 21 Norte 0 -- -- 76
2020-06-28 13:00:00 19.9 6 Nordeste 18 Norte 0 -- -- 90
2020-06-28 12:00:00 20 11 Nordeste 22 Nordeste 0.2 -- -- 91
2020-06-28 11:00:00 19.3 12 Nordeste 21 Nordeste 0.2 -- -- 91
2020-06-28 10:00:00 20.1 3 Norte 21 Nordeste 0 -- -- 81
2020-06-28 09:00:00 19.6 12 Nordeste 20 Nordeste 0 -- -- 86
2020-06-28 08:00:00 19 8 Nordeste 14 Nordeste 0 -- -- 89
2020-06-28 07:00:00 19.6 8 Nordeste 15 Nordeste 0 -- -- 84
2020-06-28 06:00:00 19.2 10 Nordeste 18 Nordeste 0 -- -- 78
2020-06-28 05:00:00 19.3 9 Nordeste 20 Nordeste 0 -- -- 83
2020-06-28 04:00:00 19.1 5 Nordeste 20 Nordeste 0 -- -- 82
2020-06-28 03:00:00 19.3 7 Este 20 Este 0 -- -- 78
2020-06-28 02:00:00 19.1 8 Nordeste 21 Nordeste 0 -- -- 88
2020-06-28 01:00:00 19.7 8 Nordeste 19 Este 0 -- -- 87
2020-06-28 00:00:00 19.5 10 Nordeste 22 Nordeste 0 -- -- 83
2020-06-27 23:00:00 19.6 12 Nordeste 22 Nordeste 0 -- -- 84
2020-06-27 22:00:00 20.1 7 Nordeste 24 Nordeste 0 -- -- 77
2020-06-27 21:00:00 20.5 6 Nordeste 22 Nordeste 0 -- -- 84
2020-06-27 20:00:00 20.9 10 Nordeste 24 Nordeste 0 -- -- 75
2020-06-27 19:00:00 21.4 13 Nordeste 27 Nordeste 0 -- -- 71
2020-06-27 18:00:00 23 16 Nordeste 29 Nordeste 0 -- -- 65
2020-06-27 17:00:00 23 16 Nordeste 34 Norte 0 -- -- 62
2020-06-27 16:00:00 22.7 19 Nordeste 34 Norte 0 -- -- 61
2020-06-27 15:00:00 23.2 15 Nordeste 37 Norte 0 -- -- 62
2020-06-27 14:00:00 22.9 20 Nordeste 31 Nordeste 0 -- -- 62
2020-06-27 13:00:00 22 16 Nordeste 29 Este 0 -- -- 63
2020-06-27 12:00:00 20.9 15 Nordeste 27 Nordeste 0 -- -- 67
2020-06-27 11:00:00 19.7 16 Nordeste 24 Nordeste 0 -- -- 71
2020-06-27 10:00:00 19.4 10 Nordeste 23 Nordeste 0 -- -- 70
2020-06-27 09:00:00 18.7 13 Nordeste 28 Nordeste 0 -- -- 73
2020-06-27 08:00:00 18.3 13 Nordeste 23 Nordeste 0 -- -- 76
2020-06-27 07:00:00 18.3 8 Nordeste 14 Nordeste 0 -- -- 76
2020-06-27 06:00:00 18.2 8 Nordeste 22 Nordeste 0 -- -- 74
2020-06-27 05:00:00 18.4 10 Nordeste 20 Nordeste 0 -- -- 74
2020-06-27 04:00:00 18.5 7 Nordeste 23 Nordeste 0 -- -- 74
2020-06-27 03:00:00 18.5 5 Nordeste 18 Nordeste 0 -- -- 75
2020-06-27 02:00:00 18.6 4 Nordeste 13 Este 0 -- -- 76
2020-06-27 01:00:00 18.5 5 Nordeste 21 Nordeste 0 -- -- 73
2020-06-27 00:00:00 18.7 6 Nordeste 26 Nordeste 0 -- -- 73
2020-06-26 23:00:00 18.8 6 Nordeste 18 Nordeste 0 -- -- 76
2020-06-26 22:00:00 18.8 11 Nordeste 19 Nordeste 0 -- -- 78
2020-06-26 21:00:00 19.1 12 Nordeste 24 Nordeste 0 -- -- 79
2020-06-26 20:00:00 20 15 Nordeste 27 Nordeste 0 -- -- 78
2020-06-26 19:00:00 19.3 15 Nordeste 25 Nordeste 0 -- -- 83
2020-06-26 18:00:00 21 16 Nordeste 30 Nordeste 0 -- -- 71
2020-06-26 17:00:00 20.9 14 Nordeste 26 Norte 0 -- -- 74
2020-06-26 16:00:00 20.6 13 Nordeste 28 Nordeste 0 -- -- 76
2020-06-26 15:00:00 22.5 19 Nordeste 30 Nordeste 0 -- -- 61
2020-06-26 14:00:00 21.5 19 Nordeste 31 Nordeste 0 -- -- 72
2020-06-26 13:00:00 21 14 Nordeste 31 Nordeste 0 -- -- 68
2020-06-26 12:00:00 20.5 13 Nordeste 30 Nordeste 0 -- -- 71
2020-06-26 11:00:00 19.9 15 Nordeste 24 Nordeste 0 -- -- 75
2020-06-26 10:00:00 19.3 7 Norte 17 Nordeste 0 -- -- 83
2020-06-26 09:00:00 19.3 7 Nordeste 19 Nordeste 0 -- -- 71
2020-06-26 08:00:00 18.8 11 Nordeste 19 Nordeste 0 -- -- 72
2020-06-26 07:00:00 18.7 13 Nordeste 22 Nordeste 0 -- -- 74
2020-06-26 06:00:00 18.8 14 Nordeste 25 Nordeste 0 -- -- 83
2020-06-26 05:00:00 18.9 8 Norte 19 Nordeste 0 -- -- 87
2020-06-26 04:00:00 18.7 10 Este 21 Este 0 -- -- 77
2020-06-26 03:00:00 18.3 4 Sudeste 18 Sudeste 0 -- -- 90
2020-06-26 02:00:00 18.2 9 Este 19 Nordeste 0 -- -- 89
2020-06-26 01:00:00 18.7 5 Este 19 Este 0.2 -- -- 92
2020-06-26 00:00:00 19.4 5 Norte 14 Nordeste 0 -- -- 85
2020-06-25 23:00:00 19.4 9 Nordeste 21 Norte 0 -- -- 81
2020-06-25 22:00:00 19.8 8 Norte 18 Norte 0 -- -- 86
2020-06-25 21:00:00 20 9 Noroeste 15 Norte 0 -- -- 82
2020-06-25 20:00:00 20.9 8 Norte 21 Norte 0 -- -- 73
2020-06-25 19:00:00 21.9 10 Norte 24 Noroeste 0 -- -- 68
2020-06-25 18:00:00 23.1 12 Noroeste 26 Noroeste 0 -- -- 63
2020-06-25 17:00:00 23.8 12 Norte 32 Nordeste 0 -- -- 56
2020-06-25 16:00:00 22.9 16 Norte 27 Norte 0 -- -- 61
2020-06-25 15:00:00 22.3 14 Norte 27 Norte 0 -- -- 66
2020-06-25 14:00:00 22.2 14 Norte 28 Noroeste 0 -- -- 65
2020-06-25 13:00:00 21.8 12 Norte 26 Norte 0 -- -- 66
2020-06-25 12:00:00 21.6 15 Nordeste 29 Nordeste 0 -- -- 66
2020-06-25 11:00:00 21.3 12 Nordeste 23 Nordeste 0 -- -- 65
2020-06-25 10:00:00 20.3 12 Nordeste 19 Nordeste 0 -- -- 71
2020-06-25 09:00:00 19.7 9 Nordeste 19 Nordeste 0 -- -- 74
2020-06-25 08:00:00 18.9 4 Noroeste 15 Nordeste 0 -- -- 79
2020-06-25 07:00:00 18.8 6 Nordeste 14 Norte 0 -- -- 82
2020-06-25 06:00:00 18.8 6 Norte 18 Nordeste 0 -- -- 84
2020-06-25 05:00:00 18.8 8 Nordeste 18 Nordeste 0 -- -- 79
2020-06-25 04:00:00 19 9 Nordeste 15 Nordeste 0 -- -- 83
2020-06-25 03:00:00 19.1 9 Nordeste 18 Nordeste 0 -- -- 79
2020-06-25 02:00:00 19.3 6 Norte 18 Nordeste 0 -- -- 81
2020-06-25 01:00:00 19.3 5 Norte 17 Norte 0 -- -- 83
2020-06-25 00:00:00 19 11 Norte 19 Norte 0 -- -- 90
2020-06-24 23:00:00 18.9 10 Nordeste 18 Nordeste 0 -- -- 88
2020-06-24 22:00:00 19.3 4 Norte 12 Norte 0 -- -- 86
2020-06-24 21:00:00 19.6 6 Norte 17 Norte 0 -- -- 85
2020-06-24 20:00:00 20.1 9 Norte 16 Norte 0 -- -- 82
2020-06-24 19:00:00 20.4 6 Noroeste 17 Nordeste 0 -- -- 79
2020-06-24 18:00:00 20.5 11 Nordeste 21 Nordeste 0 -- -- 75
2020-06-24 17:00:00 21.7 11 Norte 23 Norte 0 -- -- 76
2020-06-24 16:00:00 21.7 13 Norte 22 Norte 0 -- -- 72
2020-06-24 15:00:00 21.1 11 Norte 23 Norte 0 -- -- 76
2020-06-24 14:00:00 20.9 5 Noroeste 24 Norte 0 -- -- 74
2020-06-24 13:00:00 20.8 13 Norte 25 Norte 0 -- -- 74
2020-06-24 12:00:00 20.3 5 Noroeste 17 Nordeste 0 -- -- 79
2020-06-24 11:00:00 20.3 5 Noroeste 13 Norte 0 -- -- 78
2020-06-24 10:00:00 19.5 4 Noroeste 12 Norte 0 -- -- 80
2020-06-24 09:00:00 19.3 5 Norte 18 Nordeste 0 -- -- 78
2020-06-24 08:00:00 19.1 8 Nordeste 13 Nordeste 0 -- -- 79
2020-06-24 07:00:00 18.9 4 Noroeste 9 Oeste 0 -- -- 84
2020-06-24 06:00:00 19.1 3 Oeste 12 Norte 0 -- -- 76
2020-06-24 05:00:00 19.1 4 Norte 12 Norte 0 -- -- 77
2020-06-24 04:00:00 19.1 4 Norte 14 Nordeste 0 -- -- 78
2020-06-24 03:00:00 19.2 6 Norte 17 Nordeste 0 -- -- 81
2020-06-24 02:00:00 19.3 9 Nordeste 17 Norte 0 -- -- 81
2020-06-24 01:00:00 19.5 5 Nordeste 14 Nordeste 0 -- -- 79
2020-06-24 00:00:00 19.4 8 Nordeste 19 Nordeste 0 -- -- 88
2020-06-23 23:00:00 19.8 7 Nordeste 12 Nordeste 0 -- -- 81
2020-06-23 22:00:00 19.7 7 Nordeste 12 Nordeste 0 -- -- 82
2020-06-23 21:00:00 20.2 4 Nordeste 13 Nordeste 0 -- -- 75
2020-06-23 20:00:00 20.3 9 Nordeste 20 Nordeste 0 -- -- 76
2020-06-23 19:00:00 20.7 10 Nordeste 19 Nordeste 0 -- -- 78
2020-06-23 18:00:00 21.2 9 Noroeste 17 Noroeste 0 -- -- 74
2020-06-23 17:00:00 21.8 10 Norte 22 Norte 0 -- -- 73
2020-06-23 16:00:00 23.2 14 Norte 27 Norte 0 -- -- 68
2020-06-23 15:00:00 23.1 14 Norte 29 Nordeste 0 -- -- 66
2020-06-23 14:00:00 21.8 13 Nordeste 24 Norte 0 -- -- 76
2020-06-23 13:00:00 22 14 Norte 27 Norte 0 -- -- 74
2020-06-23 12:00:00 21.5 10 Nordeste 21 Nordeste 0 -- -- 71
2020-06-23 11:00:00 21.3 4 Nordeste 15 Nordeste 0 -- -- 67
2020-06-23 10:00:00 20 3 Nordeste 12 Norte 0 -- -- 75
2020-06-23 09:00:00 20 4 Este 15 Nordeste 0 -- -- 73
2020-06-23 08:00:00 19.2 4 Norte 13 Nordeste 0 -- -- 78
2020-06-23 07:00:00 19.2 9 Nordeste 17 Este 0 -- -- 78
2020-06-23 06:00:00 19.1 7 Nordeste 19 Nordeste 0 -- -- 77
2020-06-23 05:00:00 19.2 10 Nordeste 17 Nordeste 0 -- -- 77
2020-06-23 04:00:00 19.3 8 Nordeste 16 Este 0 -- -- 79
2020-06-23 03:00:00 19.3 9 Este 14 Nordeste 0 -- -- 79
2020-06-23 02:00:00 19.2 6 Este 16 Nordeste 0 -- -- 79
2020-06-23 01:00:00 19.4 10 Este 20 Nordeste 0 -- -- 78
2020-06-23 00:00:00 19.6 9 Nordeste 18 Nordeste 0 -- -- 79
2020-06-22 23:00:00 19.8 10 Nordeste 17 Norte 0 -- -- 78
2020-06-22 22:00:00 19.8 5 Nordeste 14 Nordeste 0 -- -- 76
2020-06-22 21:00:00 20.1 6 Nordeste 19 Nordeste 0 -- -- 73
2020-06-22 20:00:00 21.5 8 Nordeste 24 Nordeste 0 -- -- 68
2020-06-22 19:00:00 23 14 Nordeste 25 Nordeste 0 -- -- 66
2020-06-22 18:00:00 23.7 12 Nordeste 28 Nordeste 0 -- -- 63
2020-06-22 17:00:00 23.7 16 Nordeste 27 Nordeste 0 -- -- 64
2020-06-22 16:00:00 24.4 15 Nordeste 28 Nordeste 0 -- -- 61
2020-06-22 15:00:00 23.6 14 Nordeste 24 Norte 0 -- -- 64
2020-06-22 14:00:00 22.9 13 Norte 33 Nordeste 0 -- -- 68
2020-06-22 13:00:00 22.7 13 Nordeste 24 Nordeste 0 -- -- 66
2020-06-22 12:00:00 21.4 8 Norte 21 Nordeste 0 -- -- 73
2020-06-22 11:00:00 20.5 10 Nordeste 21 Este 0 -- -- 74
2020-06-22 10:00:00 20 9 Nordeste 16 Nordeste 0 -- -- 78
2020-06-22 09:00:00 19.3 8 Nordeste 16 Nordeste 0 -- -- 78
2020-06-22 08:00:00 18.8 8 Nordeste 12 Nordeste 0 -- -- 83
2020-06-22 07:00:00 18.6 6 Este 13 Nordeste 0 -- -- 85
2020-06-22 06:00:00 18.7 9 Nordeste 15 Nordeste 0 -- -- 85
2020-06-22 05:00:00 18.8 9 Nordeste 19 Nordeste 0 -- -- 83
2020-06-22 04:00:00 19 8 Este 17 Este 0 -- -- 83
2020-06-22 03:00:00 19 8 Este 20 Nordeste 0 -- -- 83
2020-06-22 02:00:00 19 11 Nordeste 21 Nordeste 0 -- -- 84
2020-06-22 01:00:00 19.2 10 Nordeste 21 Nordeste 0 -- -- 80
2020-06-22 00:00:00 19.4 12 Este 23 Nordeste 0 -- -- 83
2020-06-21 23:00:00 19.6 10 Nordeste 18 Nordeste 0 -- -- 85
2020-06-21 22:00:00 19.7 10 Este 22 Nordeste 0 -- -- 83
2020-06-21 21:00:00 20.6 10 Nordeste 28 Nordeste 0 -- -- 77
2020-06-21 20:00:00 22.4 15 Nordeste 31 Nordeste 0 -- -- 73
2020-06-21 19:00:00 22.7 20 Nordeste 32 Nordeste 0 -- -- 70
2020-06-21 18:00:00 23.1 22 Nordeste 35 Nordeste 0 -- -- 65
2020-06-21 17:00:00 23.9 23 Nordeste 37 Nordeste 0 -- -- 62
2020-06-21 16:00:00 23.6 27 Nordeste 37 Este 0 -- -- 61
2020-06-21 15:00:00 23.7 25 Nordeste 38 Nordeste 0 -- -- 62
2020-06-21 14:00:00 23.8 25 Nordeste 41 Nordeste 0 -- -- 59
2020-06-21 13:00:00 23.2 29 Nordeste 44 Nordeste 0 -- -- 63
2020-06-21 12:00:00 23.2 21 Nordeste 32 Nordeste 0 -- -- 61
2020-06-21 11:00:00 20.9 19 Nordeste 31 Nordeste 0 -- -- 73
2020-06-21 10:00:00 20.7 14 Nordeste 24 Nordeste 0 -- -- 70
2020-06-21 09:00:00 19.4 11 Nordeste 22 Nordeste 0 -- -- 80
2020-06-21 08:00:00 19.2 13 Nordeste 23 Nordeste 0 -- -- 78
2020-06-21 07:00:00 19 13 Nordeste 27 Nordeste 0 -- -- 78
2020-06-21 06:00:00 19 10 Nordeste 26 Nordeste 0 -- -- 75
2020-06-21 05:00:00 19.1 9 Nordeste 21 Nordeste 0 -- -- 75
2020-06-21 04:00:00 19.1 5 Nordeste 21 Nordeste 0 -- -- 72
2020-06-21 03:00:00 19.2 9 Nordeste 21 Nordeste 0 -- -- 74
2020-06-21 02:00:00 19.3 8 Nordeste 15 Este 0 -- -- 75
2020-06-21 01:00:00 19.3 8 Nordeste 20 Este 0 -- -- 73
2020-06-21 00:00:00 19.3 9 Nordeste 21 Nordeste 0 -- -- 72
2020-06-20 23:00:00 19.2 12 Nordeste 24 Nordeste 0 -- -- 80
2020-06-20 22:00:00 19.4 15 Nordeste 26 Nordeste 0 -- -- 81
2020-06-20 21:00:00 19.6 17 Nordeste 24 Nordeste 0 -- -- 82
2020-06-20 20:00:00 22.3 8 Norte 21 Norte 0 -- -- 71
2020-06-20 19:00:00 21.8 15 Nordeste 30 Nordeste 0 -- -- 72
2020-06-20 18:00:00 23.8 18 Nordeste 33 Nordeste 0 -- -- 60
2020-06-20 17:00:00 23.7 17 Nordeste 27 Nordeste 0 -- -- 57
2020-06-20 16:00:00 23.7 13 Norte 33 Nordeste 0 -- -- 58
2020-06-20 15:00:00 23.1 15 Norte 30 Norte 0 -- -- 64
2020-06-20 14:00:00 22 17 Nordeste 29 Nordeste 0 -- -- 69
2020-06-20 13:00:00 23.3 13 Norte 32 Norte 0 -- -- 66
2020-06-20 12:00:00 21.6 16 Nordeste 26 Nordeste 0 -- -- 71
2020-06-20 11:00:00 21.2 15 Nordeste 24 Este 0 -- -- 75
2020-06-20 10:00:00 19.1 6 Nordeste 17 Norte 0 -- -- 90
2020-06-20 09:00:00 19.7 11 Nordeste 22 Nordeste 0 -- -- 81
2020-06-20 08:00:00 19.1 11 Nordeste 17 Nordeste 0 -- -- 84
2020-06-20 07:00:00 18.9 8 Este 25 Este 0 -- -- 84
2020-06-20 06:00:00 18.8 14 Nordeste 24 Nordeste 0 -- -- 84
2020-06-20 05:00:00 19 10 Nordeste 25 Nordeste 0 -- -- 87
2020-06-20 04:00:00 19.1 16 Nordeste 26 Nordeste 0 -- -- 88
2020-06-20 03:00:00 19 8 Nordeste 23 Este 0 -- -- 88
2020-06-20 02:00:00 19.3 11 Nordeste 21 Este 0 -- -- 87
2020-06-20 01:00:00 19.3 12 Este 20 Nordeste 0 -- -- 84
2020-06-20 00:00:00 19.5 10 Nordeste 17 Nordeste 0 -- -- 85
2020-06-19 23:00:00 19.3 8 Nordeste 22 Nordeste 0 -- -- 85
2020-06-19 22:00:00 19.5 11 Nordeste 23 Este 0 -- -- 83
2020-06-19 21:00:00 20.2 12 Nordeste 27 Este 0 -- -- 80
2020-06-19 20:00:00 21.9 18 Nordeste 29 Nordeste 0 -- -- 72
2020-06-19 19:00:00 22.8 19 Nordeste 33 Nordeste 0 -- -- 64
2020-06-19 18:00:00 24.1 20 Nordeste 33 Nordeste 0 -- -- 60
2020-06-19 17:00:00 24.6 22 Nordeste 35 Nordeste 0 -- -- 60
2020-06-19 16:00:00 24.5 22 Nordeste 40 Nordeste 0 -- -- 58
2020-06-19 15:00:00 24 24 Nordeste 36 Nordeste 0 -- -- 69
2020-06-19 14:00:00 23.3 26 Nordeste 35 Nordeste 0 -- -- 71
2020-06-19 13:00:00 22.1 22 Nordeste 35 Nordeste 0 -- -- 74
2020-06-19 12:00:00 22.1 22 Nordeste 32 Nordeste 0 -- -- 75
2020-06-19 11:00:00 21.3 16 Nordeste 27 Nordeste 0 -- -- 78
2020-06-19 10:00:00 21.2 14 Nordeste 23 Nordeste 0 -- -- 78
2020-06-19 09:00:00 19.7 14 Nordeste 24 Nordeste 0.2 -- -- 89
2020-06-19 08:00:00 18.9 11 Nordeste 20 Este 0 -- -- 89
2020-06-19 07:00:00 18 8 Sudeste 15 Este 0 -- -- 90
2020-06-19 06:00:00 18.4 11 Este 19 Nordeste 0 -- -- 90
2020-06-19 05:00:00 19.1 8 Este 19 Nordeste 0 -- -- 88
2020-06-19 04:00:00 19 12 Este 20 Nordeste 0 -- -- 89
2020-06-19 03:00:00 19.2 13 Nordeste 19 Este 0 -- -- 89
2020-06-19 02:00:00 19.3 6 Nordeste 12 Sudeste 0 -- -- 88
2020-06-19 01:00:00 19.2 4 Sudeste 11 Este 0 -- -- 83
2020-06-19 00:00:00 18.4 5 Sudeste 8 Sudeste 0 -- -- 85
2020-06-18 23:00:00 19.1 6 Nordeste 12 Noroeste 0 -- -- 84
2020-06-18 22:00:00 19.6 6 Norte 13 Noroeste 0 -- -- 82
2020-06-18 21:00:00 20.1 8 Noroeste 17 Noroeste 0 -- -- 78
2020-06-18 20:00:00 22.4 9 Noroeste 19 Norte 0 -- -- 70
2020-06-18 19:00:00 22.9 11 Norte 22 Norte 0 -- -- 68
2020-06-18 18:00:00 23.6 11 Norte 26 Noroeste 0 -- -- 62
2020-06-18 17:00:00 23.2 12 Norte 24 Norte 0 -- -- 68
2020-06-18 16:00:00 23.3 14 Norte 23 Noroeste 0 -- -- 71
2020-06-18 15:00:00 23.5 12 Noroeste 19 Noroeste 0 -- -- 70
2020-06-18 14:00:00 23.2 11 Noroeste 19 Oeste 0 -- -- 70
2020-06-18 13:00:00 22.4 10 Noroeste 17 Noroeste 0 -- -- 74
2020-06-18 12:00:00 22.3 10 Noroeste 14 Noroeste 0 -- -- 74
2020-06-18 11:00:00 21.5 10 Noroeste 15 Oeste 0 -- -- 74
2020-06-18 10:00:00 20.6 9 Noroeste 18 Noroeste 0 -- -- 79
2020-06-18 09:00:00 19.6 9 Noroeste 18 Noroeste 0 -- -- 85
2020-06-18 08:00:00 19.1 8 Noroeste 22 Noroeste 0 -- -- 85
2020-06-18 07:00:00 19.1 11 Noroeste 23 Noroeste 0 -- -- 87
2020-06-18 06:00:00 19.2 12 Noroeste 21 Oeste 0 -- -- 86
2020-06-18 05:00:00 19.3 10 Noroeste 27 Noroeste 0 -- -- 86
2020-06-18 04:00:00 19.6 16 Noroeste 28 Noroeste 0 -- -- 89
2020-06-18 03:00:00 19.5 13 Noroeste 28 Noroeste 0 -- -- 88
2020-06-18 02:00:00 19.6 16 Noroeste 32 Oeste 0 -- -- 90
2020-06-18 01:00:00 19.9 8 Noroeste 21 Noroeste 0 -- -- 91
2020-06-18 00:00:00 20 4 Noroeste 14 Noroeste 0 -- -- 92
2020-06-17 23:00:00 20.2 4 Oeste 20 Noroeste 0 -- -- 90
2020-06-17 22:00:00 20.2 11 Noroeste 20 Noroeste 0 -- -- 89
2020-06-17 21:00:00 21.3 14 Noroeste 22 Oeste 0 -- -- 87
2020-06-17 20:00:00 23.1 13 Noroeste 20 Oeste 0 -- -- 77
2020-06-17 19:00:00 23.4 9 Oeste 16 Oeste 0 -- -- 76
2020-06-17 18:00:00 23.3 9 Oeste 17 Noroeste 0 -- -- 77
2020-06-17 17:00:00 23.7 10 Noroeste 17 Noroeste 0 -- -- 75
2020-06-17 16:00:00 23.4 7 Oeste 14 Oeste 0 -- -- 77
2020-06-17 15:00:00 23.8 9 Oeste 15 Noroeste 0 -- -- 76
2020-06-17 14:00:00 23 8 Noroeste 17 Noroeste 0 -- -- 77
2020-06-17 13:00:00 23.3 8 Noroeste 13 Noroeste 0 -- -- 77
2020-06-17 12:00:00 22.4 6 Noroeste 12 Noroeste 0 -- -- 85
2020-06-17 11:00:00 21 5 Noroeste 9 Norte 0 -- -- 90
2020-06-17 10:00:00 21.4 4 Nordeste 9 Noroeste 0 -- -- 80
2020-06-17 09:00:00 20.6 4 Sudoeste 7 Sur 0 -- -- 82
2020-06-17 08:00:00 20 5 Sudeste 8 Sur 0 -- -- 80
2020-06-17 07:00:00 20.2 2 Sur 8 Sudoeste 0 -- -- 80
2020-06-17 06:00:00 19.9 9 Sudeste 13 Sudeste 0 -- -- 82
2020-06-17 05:00:00 20.2 6 Nordeste 10 Nordeste 0 -- -- 85
2020-06-17 04:00:00 20.8 6 Oeste 33 Este 0 -- -- 80
2020-06-17 03:00:00 21.6 19 Nordeste 30 Este 0 -- -- 73
2020-06-17 02:00:00 25.2 9 Oeste 24 Sudoeste 0 -- -- 55
2020-06-17 01:00:00 24 6 Sudeste 20 Oeste 0 -- -- 61
2020-06-17 00:00:00 24.9 9 Oeste 42 Sudoeste 0 -- -- 56
2020-06-16 23:00:00 27.1 22 Sudoeste 46 Sudoeste 0 -- -- 43
2020-06-16 22:00:00 26.9 10 Noroeste 42 Oeste 0 -- -- 46
2020-06-16 21:00:00 27.9 18 Sudoeste 38 Oeste 0 -- -- 39
2020-06-16 20:00:00 26.1 14 Oeste 30 Oeste 0 -- -- 53
2020-06-16 19:00:00 28.6 10 Oeste 29 Oeste 0 -- -- 41
2020-06-16 18:00:00 25.5 11 Sudoeste 24 Oeste 0 -- -- 64
2020-06-16 17:00:00 23.9 9 Noroeste 21 Oeste 0 -- -- 81
2020-06-16 16:00:00 25 10 Oeste 19 Oeste 0 -- -- 75
2020-06-16 15:00:00 26.5 11 Oeste 18 Sudoeste 0 -- -- 63
2020-06-16 14:00:00 29.2 8 Oeste 17 Oeste 0 -- -- 50
2020-06-16 13:00:00 30.4 5 Oeste 18 Oeste 0 -- -- 43
2020-06-16 12:00:00 30 6 Sudoeste 11 Oeste 0 -- -- 37
2020-06-16 11:00:00 27.1 4 Sudoeste 15 Sudoeste 0 -- -- 51
2020-06-16 10:00:00 25.8 5 Sur 16 Oeste 0 -- -- 52
2020-06-16 09:00:00 27.1 8 Sudeste 20 Sudeste 0 -- -- 46
2020-06-16 08:00:00 24.1 14 Sudeste 22 Sudeste 0 -- -- 51
2020-06-16 07:00:00 21.6 5 Sudeste 10 Sudeste 0 -- -- 60
2020-06-16 06:00:00 22.3 6 Sur 17 Sudeste 0 -- -- 60
2020-06-16 05:00:00 22.5 7 Sudeste 19 Sudoeste 0 -- -- 57
2020-06-16 04:00:00 22.9 7 Sudoeste 19 Sudeste 0 -- -- 62
2020-06-16 03:00:00 22.7 14 Sudeste 18 Sudeste 0 -- -- 60
2020-06-16 02:00:00 22.3 8 Sudeste 10 Sudeste 0 -- -- 63
2020-06-16 01:00:00 22.7 7 Sudeste 13 Sudeste 0 -- -- 63
2020-06-16 00:00:00 22.6 10 Sudeste 13 Sudeste 0 -- -- 66
2020-06-15 23:00:00 22.4 3 Este 11 Este 0 -- -- 70
2020-06-15 22:00:00 22.5 5 Oeste 12 Noroeste 0 -- -- 71
2020-06-15 21:00:00 23.8 2 Oeste 9 Oeste 0 -- -- 65
2020-06-15 20:00:00 25 4 Nordeste 13 Nordeste 0 -- -- 60
2020-06-15 19:00:00 25.6 5 Norte 14 Noroeste 0 -- -- 58
2020-06-15 18:00:00 27.1 10 Noroeste 18 Oeste 0 -- -- 57
2020-06-15 17:00:00 27.1 12 Oeste 18 Noroeste 0 -- -- 57
2020-06-15 16:00:00 28 9 Oeste 18 Oeste 0 -- -- 50
2020-06-15 15:00:00 28.5 10 Oeste 27 Sudoeste 0 -- -- 46
2020-06-15 14:00:00 27.3 16 Oeste 30 Oeste 0 -- -- 49
2020-06-15 13:00:00 24.9 8 Oeste 17 Oeste 0 -- -- 53
2020-06-15 12:00:00 22.8 7 Sudoeste 16 Oeste 0 -- -- 69
2020-06-15 11:00:00 23.2 6 Oeste 14 Norte 0 -- -- 72
2020-06-15 10:00:00 24.6 7 Norte 15 Norte 0 -- -- 54
2020-06-15 09:00:00 23.3 9 Sudoeste 19 Sudoeste 0 -- -- 57
2020-06-15 08:00:00 19.5 12 Sudoeste 22 Sudoeste 0 -- -- 91
2020-06-15 07:00:00 20 6 Sudoeste 11 Sudoeste 0 -- -- 85
2020-06-15 06:00:00 19.8 4 Sudoeste 13 Sudoeste 0.2 -- -- 87
2020-06-15 05:00:00 20 2 Sur 26 Oeste 0.4 -- -- 88
2020-06-15 04:00:00 24.4 6 Sudoeste 10 Sur 0 -- -- 56
2020-06-15 03:00:00 25 6 Sur 14 Sur 0 -- -- 44
2020-06-15 02:00:00 24.9 4 Sudoeste 15 Sur 0 -- -- 50
2020-06-15 01:00:00 21.4 8 Sur 19 Sudoeste 0 -- -- 73
2020-06-15 00:00:00 21.7 13 Oeste 22 Sudeste 0 -- -- 68
2020-06-14 23:00:00 26 13 Sudeste 20 Este 0 -- -- 41
2020-06-14 22:00:00 23.6 10 Sudeste 16 Sudeste 0 -- -- 51
2020-06-14 21:00:00 21.3 4 Sudeste 21 Sudeste 0 -- -- 67
2020-06-14 20:00:00 22.2 12 Nordeste 18 Nordeste 0 -- -- 59
2020-06-14 19:00:00 21.5 7 Oeste 18 Oeste 0 -- -- 60
2020-06-14 18:00:00 25 6 Oeste 31 Sudoeste 0 -- -- 45
2020-06-14 17:00:00 21.8 18 Sudoeste 41 Sudoeste 0 -- -- 67
2020-06-14 16:00:00 22 23 Sudoeste 37 Sudoeste 0 -- -- 62
2020-06-14 15:00:00 23.6 13 Sudoeste 29 Sudoeste 0 -- -- 57
2020-06-14 14:00:00 22.9 13 Oeste 19 Oeste 0 -- -- 59
2020-06-14 13:00:00 22.6 13 Oeste 19 Oeste 0 -- -- 60
2020-06-14 12:00:00 22.3 11 Oeste 17 Oeste 0 -- -- 62
2020-06-14 11:00:00 21.2 7 Oeste 13 Oeste 0 -- -- 66
2020-06-14 10:00:00 21.6 4 Oeste 8 Oeste 0 -- -- 56
2020-06-14 09:00:00 20.9 2 Noroeste 6 Oeste 0 -- -- 51
2020-06-14 08:00:00 17.9 3 Sur 10 Sudeste 0 -- -- 60
2020-06-14 07:00:00 16.6 5 Sur 14 Sudeste 0 -- -- 67
2020-06-14 06:00:00 16.3 6 Sudeste 18 Sudeste 0 -- -- 66
2020-06-14 05:00:00 16.6 6 Este 17 Sudeste 0 -- -- 67
2020-06-14 04:00:00 16.9 8 Sur 22 Sudeste 0 -- -- 64
2020-06-14 03:00:00 17.2 15 Sudeste 20 Sudeste 0 -- -- 64
2020-06-14 02:00:00 17.1 11 Sudeste 17 Sur 0 -- -- 67
2020-06-14 01:00:00 17.3 12 Sudeste 19 Sudeste 0 -- -- 68
2020-06-14 00:00:00 17.2 10 Sudeste 17 Sudeste 0 -- -- 67
2020-06-13 23:00:00 18.1 9 Este 13 Este 0 -- -- 71
2020-06-13 22:00:00 19 4 Sudeste 14 Norte 0 -- -- 74
2020-06-13 21:00:00 20.9 8 Nordeste 17 Nordeste 0 -- -- 66
2020-06-13 20:00:00 22.4 9 Nordeste 22 Nordeste 0 -- -- 61
2020-06-13 19:00:00 23 13 Nordeste 24 Nordeste 0 -- -- 60
2020-06-13 18:00:00 23.5 10 Norte 21 Noroeste 0 -- -- 59
2020-06-13 17:00:00 21.9 10 Noroeste 21 Noroeste 0 -- -- 67
2020-06-13 16:00:00 22.2 10 Noroeste 18 Noroeste 0 -- -- 67
2020-06-13 15:00:00 22 11 Noroeste 21 Noroeste 0 -- -- 65
2020-06-13 14:00:00 22.9 11 Norte 19 Norte 0 -- -- 61
2020-06-13 13:00:00 21.7 10 Norte 17 Noroeste 0 -- -- 65
2020-06-13 12:00:00 21.6 10 Noroeste 19 Oeste 0 -- -- 60
2020-06-13 11:00:00 21.8 7 Noroeste 12 Norte 0 -- -- 62
2020-06-13 10:00:00 20.7 4 Oeste 10 Oeste 0 -- -- 59
2020-06-13 09:00:00 20.5 3 Noroeste 9 Sudeste 0 -- -- 65
2020-06-13 08:00:00 17.5 4 Sur 17 Sudeste 0 -- -- 72
2020-06-13 07:00:00 15.6 12 Sudeste 17 Sudeste 0 -- -- 78
2020-06-13 06:00:00 16.3 10 Sudeste 16 Sudeste 0 -- -- 84
2020-06-13 05:00:00 16.9 8 Sudeste 11 Sudeste 0 -- -- 83
2020-06-13 04:00:00 17.5 3 Sudeste 8 Sudeste 0 -- -- 79
2020-06-13 03:00:00 17.5 6 Sudeste 11 Sudeste 0 -- -- 78
2020-06-13 02:00:00 16.7 9 Sudeste 12 Sudeste 0 -- -- 81
2020-06-13 01:00:00 16.5 10 Sudeste 15 Sudeste 0 -- -- 77
2020-06-13 00:00:00 17.3 6 Sur 9 Sudeste 0 -- -- 75
2020-06-12 23:00:00 18.2 2 Norte 7 Este 0 -- -- 74
2020-06-12 22:00:00 18.3 0 Calma 9 Noroeste 0 -- -- 73
2020-06-12 21:00:00 19 5 Norte 10 Norte 0 -- -- 70
2020-06-12 20:00:00 19.6 7 Noroeste 15 Norte 0 -- -- 66
2020-06-12 19:00:00 21 10 Norte 22 Norte 0 -- -- 58
2020-06-12 18:00:00 22.4 11 Norte 25 Norte 0 -- -- 53
2020-06-12 17:00:00 22.7 12 Norte 22 Norte 0 -- -- 50
2020-06-12 16:00:00 22.2 14 Norte 31 Norte 0 -- -- 50
2020-06-12 15:00:00 22.3 12 Norte 22 Norte 0 -- -- 56
2020-06-12 14:00:00 22.9 12 Norte 24 Noroeste 0 -- -- 46
2020-06-12 13:00:00 22.6 9 Noroeste 15 Oeste 0 -- -- 50
2020-06-12 12:00:00 21.9 8 Noroeste 13 Noroeste 0 -- -- 52
2020-06-12 11:00:00 20.1 5 Oeste 9 Oeste 0 -- -- 69
2020-06-12 10:00:00 19.3 5 Oeste 10 Noroeste 0 -- -- 75
2020-06-12 09:00:00 17.8 7 Noroeste 12 Noroeste 0 -- -- 81
2020-06-12 08:00:00 17.6 6 Noroeste 12 Noroeste 0 -- -- 79
2020-06-12 07:00:00 17.3 6 Noroeste 16 Noroeste 0 -- -- 83
2020-06-12 06:00:00 17.6 5 Noroeste 10 Noroeste 0 -- -- 78
2020-06-12 05:00:00 17.6 2 Oeste 10 Noroeste 0 -- -- 78
2020-06-12 04:00:00 17.7 3 Oeste 17 Sudoeste 0 -- -- 78
2020-06-12 03:00:00 17.7 8 Sudoeste 14 Sudoeste 0 -- -- 80
2020-06-12 02:00:00 17.8 5 Oeste 9 Oeste 0 -- -- 79
2020-06-12 01:00:00 17.8 0 Calma 6 Sudoeste 0 -- -- 79
2020-06-12 00:00:00 17.4 4 Sur 5 Sur 0 -- -- 79